sensor_id;sensor_type;location;lat;lon;timestamp;pressure;altitude;pressure_sealevel;temperature;humidity
78337;BME280;67610;51.588;7.002;2023-05-19T00:01:43;101831.84;;;12.00;48.45
78337;BME280;67610;51.588;7.002;2023-05-19T00:04:10;101839.75;;;12.00;48.85
78337;BME280;67610;51.588;7.002;2023-05-19T00:06:37;101839.56;;;11.91;48.40
78337;BME280;67610;51.588;7.002;2023-05-19T00:09:08;101834.19;;;11.93;48.81
78337;BME280;67610;51.588;7.002;2023-05-19T00:11:35;101835.13;;;11.92;48.55
78337;BME280;67610;51.588;7.002;2023-05-19T00:14:03;101840.25;;;11.93;49.44
78337;BME280;67610;51.588;7.002;2023-05-19T00:16:32;101839.72;;;11.90;49.51
78337;BME280;67610;51.588;7.002;2023-05-19T00:18:58;101837.22;;;11.88;48.95
78337;BME280;67610;51.588;7.002;2023-05-19T00:21:27;101837.06;;;11.90;48.78
78337;BME280;67610;51.588;7.002;2023-05-19T00:23:53;101841.75;;;11.86;48.98
78337;BME280;67610;51.588;7.002;2023-05-19T00:26:19;101844.53;;;11.85;48.85
78337;BME280;67610;51.588;7.002;2023-05-19T00:28:47;101845.69;;;11.71;49.43
78337;BME280;67610;51.588;7.002;2023-05-19T00:31:12;101857.94;;;11.72;49.40
78337;BME280;67610;51.588;7.002;2023-05-19T00:33:37;101852.38;;;11.75;49.49
78337;BME280;67610;51.588;7.002;2023-05-19T00:36:03;101848.94;;;11.64;49.67
78337;BME280;67610;51.588;7.002;2023-05-19T00:38:31;101847.06;;;11.55;49.85
78337;BME280;67610;51.588;7.002;2023-05-19T00:40:57;101840.97;;;11.54;50.24
78337;BME280;67610;51.588;7.002;2023-05-19T00:43:23;101843.59;;;11.54;49.79
78337;BME280;67610;51.588;7.002;2023-05-19T00:45:49;101841.66;;;11.56;49.84
78337;BME280;67610;51.588;7.002;2023-05-19T00:48:15;101846.50;;;11.51;49.85
78337;BME280;67610;51.588;7.002;2023-05-19T00:50:40;101845.97;;;11.57;49.53
78337;BME280;67610;51.588;7.002;2023-05-19T00:53:06;101838.59;;;11.51;49.62
78337;BME280;67610;51.588;7.002;2023-05-19T00:55:33;101844.69;;;11.52;49.97
78337;BME280;67610;51.588;7.002;2023-05-19T00:58:02;101836.91;;;11.50;49.64
78337;BME280;67610;51.588;7.002;2023-05-19T01:00:29;101837.91;;;11.49;50.02
78337;BME280;67610;51.588;7.002;2023-05-19T01:02:55;101837.31;;;11.46;49.77
78337;BME280;67610;51.588;7.002;2023-05-19T01:05:21;101834.81;;;11.44;50.04
78337;BME280;67610;51.588;7.002;2023-05-19T01:07:46;101833.72;;;11.47;50.03
78337;BME280;67610;51.588;7.002;2023-05-19T01:10:16;101830.25;;;11.46;49.83
78337;BME280;67610;51.588;7.002;2023-05-19T01:12:42;101831.19;;;11.45;50.01
78337;BME280;67610;51.588;7.002;2023-05-19T01:15:08;101825.47;;;11.40;50.33
78337;BME280;67610;51.588;7.002;2023-05-19T01:17:45;101831.63;;;11.30;50.34
78337;BME280;67610;51.588;7.002;2023-05-19T01:20:40;101824.69;;;11.29;50.67
78337;BME280;67610;51.588;7.002;2023-05-19T01:29:15;101825.44;;;11.19;50.89
78337;BME280;67610;51.588;7.002;2023-05-19T01:31:51;101826.09;;;11.12;51.01
78337;BME280;67610;51.588;7.002;2023-05-19T01:34:19;101825.50;;;11.08;51.40
78337;BME280;67610;51.588;7.002;2023-05-19T01:36:47;101824.09;;;11.04;51.22
78337;BME280;67610;51.588;7.002;2023-05-19T01:39:15;101825.88;;;11.04;51.24
78337;BME280;67610;51.588;7.002;2023-05-19T01:41:42;101824.94;;;11.05;51.64
78337;BME280;67610;51.588;7.002;2023-05-19T01:44:10;101821.59;;;11.03;51.40
78337;BME280;67610;51.588;7.002;2023-05-19T01:46:37;101829.94;;;11.08;51.93
78337;BME280;67610;51.588;7.002;2023-05-19T01:49:03;101830.19;;;11.05;51.32
78337;BME280;67610;51.588;7.002;2023-05-19T01:51:29;101833.78;;;11.04;51.45
78337;BME280;67610;51.588;7.002;2023-05-19T01:53:55;101835.94;;;11.10;51.09
78337;BME280;67610;51.588;7.002;2023-05-19T01:56:33;101829.34;;;11.04;51.49
78337;BME280;67610;51.588;7.002;2023-05-19T01:59:11;101832.59;;;10.97;51.40
78337;BME280;67610;51.588;7.002;2023-05-19T02:01:53;101830.94;;;10.96;51.62
78337;BME280;67610;51.588;7.002;2023-05-19T02:04:50;101839.22;;;10.91;51.66
78337;BME280;67610;51.588;7.002;2023-05-19T02:07:43;101835.03;;;10.89;52.13
78337;BME280;67610;51.588;7.002;2023-05-19T02:10:21;101831.56;;;10.88;51.92
78337;BME280;67610;51.588;7.002;2023-05-19T02:12:51;101830.84;;;10.86;52.12
78337;BME280;67610;51.588;7.002;2023-05-19T02:15:23;101835.66;;;10.81;52.12
78337;BME280;67610;51.588;7.002;2023-05-19T02:17:52;101840.09;;;10.70;52.92
78337;BME280;67610;51.588;7.002;2023-05-19T02:20:18;101836.53;;;10.71;52.49
78337;BME280;67610;51.588;7.002;2023-05-19T02:22:46;101838.03;;;10.73;52.48
78337;BME280;67610;51.588;7.002;2023-05-19T02:25:12;101837.59;;;10.68;52.50
78337;BME280;67610;51.588;7.002;2023-05-19T02:27:38;101836.16;;;10.64;52.77
78337;BME280;67610;51.588;7.002;2023-05-19T02:30:04;101825.19;;;10.59;52.97
78337;BME280;67610;51.588;7.002;2023-05-19T02:32:32;101842.16;;;10.55;53.88
78337;BME280;67610;51.588;7.002;2023-05-19T02:34:58;101833.44;;;10.43;53.45
78337;BME280;67610;51.588;7.002;2023-05-19T02:37:24;101835.69;;;10.48;53.18
78337;BME280;67610;51.588;7.002;2023-05-19T02:39:53;101830.56;;;10.46;53.32
78337;BME280;67610;51.588;7.002;2023-05-19T02:42:18;101830.81;;;10.43;53.43
78337;BME280;67610;51.588;7.002;2023-05-19T02:44:44;101825.19;;;10.48;53.11
78337;BME280;67610;51.588;7.002;2023-05-19T02:47:10;101816.94;;;10.41;53.66
78337;BME280;67610;51.588;7.002;2023-05-19T02:49:35;101822.94;;;10.32;53.82
78337;BME280;67610;51.588;7.002;2023-05-19T02:52:01;101823.06;;;10.31;54.32
78337;BME280;67610;51.588;7.002;2023-05-19T02:54:29;101818.88;;;10.28;54.07
78337;BME280;67610;51.588;7.002;2023-05-19T02:56:54;101814.34;;;10.30;54.73
78337;BME280;67610;51.588;7.002;2023-05-19T02:59:20;101818.53;;;10.22;54.25
78337;BME280;67610;51.588;7.002;2023-05-19T03:01:46;101809.09;;;10.19;54.35
78337;BME280;67610;51.588;7.002;2023-05-19T03:04:12;101816.00;;;10.20;54.46
78337;BME280;67610;51.588;7.002;2023-05-19T03:06:38;101813.28;;;10.22;55.17
78337;BME280;67610;51.588;7.002;2023-05-19T03:09:03;101809.94;;;10.20;54.57
78337;BME280;67610;51.588;7.002;2023-05-19T03:11:30;101815.06;;;10.21;54.53
78337;BME280;67610;51.588;7.002;2023-05-19T03:13:55;101817.47;;;10.24;54.48
78337;BME280;67610;51.588;7.002;2023-05-19T03:16:23;101822.72;;;10.24;54.25
78337;BME280;67610;51.588;7.002;2023-05-19T03:18:49;101817.31;;;10.26;54.71
78337;BME280;67610;51.588;7.002;2023-05-19T03:21:15;101816.84;;;10.21;54.54
78337;BME280;67610;51.588;7.002;2023-05-19T03:23:40;101826.53;;;10.20;54.53
78337;BME280;67610;51.588;7.002;2023-05-19T03:26:05;101819.34;;;10.22;54.68
78337;BME280;67610;51.588;7.002;2023-05-19T03:28:31;101824.59;;;10.22;54.44
78337;BME280;67610;51.588;7.002;2023-05-19T03:30:56;101820.19;;;10.23;54.75
78337;BME280;67610;51.588;7.002;2023-05-19T03:33:21;101819.34;;;10.22;54.87
78337;BME280;67610;51.588;7.002;2023-05-19T03:35:48;101821.03;;;10.23;54.98
78337;BME280;67610;51.588;7.002;2023-05-19T03:38:13;101819.84;;;10.16;55.33
78337;BME280;67610;51.588;7.002;2023-05-19T03:40:39;101813.50;;;10.19;55.27
78337;BME280;67610;51.588;7.002;2023-05-19T03:43:05;101819.47;;;10.21;55.08
78337;BME280;67610;51.588;7.002;2023-05-19T03:45:32;101820.09;;;10.24;54.94
78337;BME280;67610;51.588;7.002;2023-05-19T03:47:57;101829.41;;;10.28;54.64
78337;BME280;67610;51.588;7.002;2023-05-19T03:50:22;101829.16;;;10.31;54.79
78337;BME280;67610;51.588;7.002;2023-05-19T03:52:48;101828.31;;;10.31;55.03
78337;BME280;67610;51.588;7.002;2023-05-19T03:55:13;101825.56;;;10.32;54.79
78337;BME280;67610;51.588;7.002;2023-05-19T03:57:41;101829.75;;;10.35;54.66
78337;BME280;67610;51.588;7.002;2023-05-19T04:00:07;101831.44;;;10.36;54.97
78337;BME280;67610;51.588;7.002;2023-05-19T04:02:35;101827.63;;;10.29;55.99
78337;BME280;67610;51.588;7.002;2023-05-19T04:05:00;101828.44;;;10.29;55.51
78337;BME280;67610;51.588;7.002;2023-05-19T04:07:28;101835.94;;;10.34;55.31
78337;BME280;67610;51.588;7.002;2023-05-19T04:09:54;101824.84;;;10.41;54.91
78337;BME280;67610;51.588;7.002;2023-05-19T04:12:19;101826.53;;;10.42;55.35
78337;BME280;67610;51.588;7.002;2023-05-19T04:14:46;101834.88;;;10.47;55.09
78337;BME280;67610;51.588;7.002;2023-05-19T04:17:11;101828.91;;;10.57;54.73
78337;BME280;67610;51.588;7.002;2023-05-19T04:19:38;101829.00;;;10.55;54.85
78337;BME280;67610;51.588;7.002;2023-05-19T04:22:04;101831.41;;;10.58;55.14
78337;BME280;67610;51.588;7.002;2023-05-19T04:24:29;101833.53;;;10.64;54.98
78337;BME280;67610;51.588;7.002;2023-05-19T04:26:55;101834.22;;;10.66;54.89
78337;BME280;67610;51.588;7.002;2023-05-19T04:29:21;101839.97;;;10.71;54.57
78337;BME280;67610;51.588;7.002;2023-05-19T04:31:48;101840.91;;;10.81;54.50
78337;BME280;67610;51.588;7.002;2023-05-19T04:34:13;101844.84;;;10.87;54.51
78337;BME280;67610;51.588;7.002;2023-05-19T04:36:40;101847.81;;;10.93;54.14
78337;BME280;67610;51.588;7.002;2023-05-19T04:39:05;101849.34;;;11.07;53.89
78337;BME280;67610;51.588;7.002;2023-05-19T04:41:34;101838.63;;;11.19;53.61
78337;BME280;67610;51.588;7.002;2023-05-19T04:44:00;101838.31;;;11.34;53.48
78337;BME280;67610;51.588;7.002;2023-05-19T04:46:25;101846.13;;;11.56;53.03
78337;BME280;67610;51.588;7.002;2023-05-19T04:48:51;101844.38;;;11.66;52.87
78337;BME280;67610;51.588;7.002;2023-05-19T04:51:18;101846.06;;;11.87;52.74
78337;BME280;67610;51.588;7.002;2023-05-19T04:53:44;101855.03;;;12.06;51.97
78337;BME280;67610;51.588;7.002;2023-05-19T04:56:09;101847.63;;;12.20;51.89
78337;BME280;67610;51.588;7.002;2023-05-19T04:58:37;101848.25;;;12.43;50.81
78337;BME280;67610;51.588;7.002;2023-05-19T05:01:04;101852.38;;;12.66;50.61
78337;BME280;67610;51.588;7.002;2023-05-19T05:03:31;101837.28;;;12.97;50.05
78337;BME280;67610;51.588;7.002;2023-05-19T05:05:58;101846.50;;;13.21;49.24
78337;BME280;67610;51.588;7.002;2023-05-19T05:08:24;101838.69;;;13.49;48.99
78337;BME280;67610;51.588;7.002;2023-05-19T05:10:50;101839.75;;;13.75;48.59
78337;BME280;67610;51.588;7.002;2023-05-19T05:13:22;101845.28;;;13.91;48.43
78337;BME280;67610;51.588;7.002;2023-05-19T05:15:48;101847.41;;;14.24;48.02
78337;BME280;67610;51.588;7.002;2023-05-19T05:18:14;101846.56;;;14.60;45.90
78337;BME280;67610;51.588;7.002;2023-05-19T05:20:41;101846.59;;;14.78;46.27
78337;BME280;67610;51.588;7.002;2023-05-19T05:23:08;101839.66;;;14.95;45.39
78337;BME280;67610;51.588;7.002;2023-05-19T05:25:35;101850.03;;;15.23;45.69
78337;BME280;67610;51.588;7.002;2023-05-19T05:28:01;101847.69;;;15.56;45.43
78337;BME280;67610;51.588;7.002;2023-05-19T05:30:29;101845.63;;;15.93;44.61
78337;BME280;67610;51.588;7.002;2023-05-19T05:32:55;101847.22;;;16.12;44.07
78337;BME280;67610;51.588;7.002;2023-05-19T05:35:22;101838.03;;;16.32;43.19
78337;BME280;67610;51.588;7.002;2023-05-19T05:37:48;101845.78;;;16.59;42.24
78337;BME280;67610;51.588;7.002;2023-05-19T05:40:13;101843.53;;;16.80;41.90
78337;BME280;67610;51.588;7.002;2023-05-19T05:42:39;101841.59;;;17.06;39.12
78337;BME280;67610;51.588;7.002;2023-05-19T05:45:05;101841.94;;;17.19;39.65
78337;BME280;67610;51.588;7.002;2023-05-19T05:47:30;101839.44;;;17.26;40.50
78337;BME280;67610;51.588;7.002;2023-05-19T05:49:56;101834.84;;;17.52;40.79
78337;BME280;67610;51.588;7.002;2023-05-19T05:52:27;101834.13;;;17.82;40.19
78337;BME280;67610;51.588;7.002;2023-05-19T05:54:54;101829.09;;;18.03;39.40
78337;BME280;67610;51.588;7.002;2023-05-19T05:57:19;101835.69;;;18.15;39.14
78337;BME280;67610;51.588;7.002;2023-05-19T05:59:45;101836.91;;;18.44;38.10
78337;BME280;67610;51.588;7.002;2023-05-19T06:02:11;101835.88;;;18.61;38.68
78337;BME280;67610;51.588;7.002;2023-05-19T06:04:36;101834.72;;;18.86;37.10
78337;BME280;67610;51.588;7.002;2023-05-19T06:07:02;101830.13;;;19.03;37.38
78337;BME280;67610;51.588;7.002;2023-05-19T06:09:31;101827.88;;;19.14;35.45
78337;BME280;67610;51.588;7.002;2023-05-19T06:11:57;101823.38;;;19.15;36.80
78337;BME280;67610;51.588;7.002;2023-05-19T06:14:24;101824.06;;;19.31;36.77
78337;BME280;67610;51.588;7.002;2023-05-19T06:16:49;101821.28;;;19.47;36.20
78337;BME280;67610;51.588;7.002;2023-05-19T06:19:17;101819.13;;;19.66;36.12
78337;BME280;67610;51.588;7.002;2023-05-19T06:21:44;101822.91;;;19.86;35.49
78337;BME280;67610;51.588;7.002;2023-05-19T06:24:10;101830.84;;;20.08;36.06
78337;BME280;67610;51.588;7.002;2023-05-19T06:26:35;101816.84;;;20.36;34.98
78337;BME280;67610;51.588;7.002;2023-05-19T06:29:01;101818.56;;;20.58;35.13
78337;BME280;67610;51.588;7.002;2023-05-19T06:31:27;101821.78;;;20.89;35.01
78337;BME280;67610;51.588;7.002;2023-05-19T06:33:53;101822.09;;;21.15;33.88
78337;BME280;67610;51.588;7.002;2023-05-19T06:36:18;101817.69;;;21.29;33.94
78337;BME280;67610;51.588;7.002;2023-05-19T06:38:43;101821.63;;;21.61;33.44
78337;BME280;67610;51.588;7.002;2023-05-19T06:41:11;101818.16;;;21.88;32.91
78337;BME280;67610;51.588;7.002;2023-05-19T06:43:37;101819.56;;;22.18;32.21
78337;BME280;67610;51.588;7.002;2023-05-19T06:46:02;101820.81;;;22.15;31.83
78337;BME280;67610;51.588;7.002;2023-05-19T06:48:28;101815.72;;;22.27;29.64
78337;BME280;67610;51.588;7.002;2023-05-19T06:50:53;101825.88;;;22.45;31.25
78337;BME280;67610;51.588;7.002;2023-05-19T06:53:19;101824.34;;;22.63;29.62
78337;BME280;67610;51.588;7.002;2023-05-19T06:55:47;101829.31;;;22.73;28.65
78337;BME280;67610;51.588;7.002;2023-05-19T06:58:15;101819.00;;;22.83;28.03
78337;BME280;67610;51.588;7.002;2023-05-19T07:00:41;101828.56;;;22.99;30.32
78337;BME280;67610;51.588;7.002;2023-05-19T07:03:07;101824.88;;;23.26;30.28
78337;BME280;67610;51.588;7.002;2023-05-19T07:05:32;101822.81;;;23.67;28.05
78337;BME280;67610;51.588;7.002;2023-05-19T07:07:58;101821.13;;;23.86;29.11
78337;BME280;67610;51.588;7.002;2023-05-19T07:10:23;101826.28;;;24.00;28.90
78337;BME280;67610;51.588;7.002;2023-05-19T07:12:48;101830.34;;;24.29;26.31
78337;BME280;67610;51.588;7.002;2023-05-19T07:15:14;101827.16;;;24.52;27.69
78337;BME280;67610;51.588;7.002;2023-05-19T07:17:40;101824.59;;;24.70;27.59
78337;BME280;67610;51.588;7.002;2023-05-19T07:20:06;101822.28;;;24.80;27.08
78337;BME280;67610;51.588;7.002;2023-05-19T07:22:35;101826.19;;;24.84;26.45
78337;BME280;67610;51.588;7.002;2023-05-19T07:25:01;101822.22;;;24.86;25.42
78337;BME280;67610;51.588;7.002;2023-05-19T07:27:26;101828.03;;;24.90;26.47
78337;BME280;67610;51.588;7.002;2023-05-19T07:29:53;101825.53;;;25.20;27.24
78337;BME280;67610;51.588;7.002;2023-05-19T07:32:19;101819.03;;;25.58;27.04
78337;BME280;67610;51.588;7.002;2023-05-19T07:34:45;101813.56;;;25.65;25.50
78337;BME280;67610;51.588;7.002;2023-05-19T07:37:11;101814.28;;;25.79;25.05
78337;BME280;67610;51.588;7.002;2023-05-19T07:39:37;101817.09;;;25.84;24.67
78337;BME280;67610;51.588;7.002;2023-05-19T07:42:02;101816.41;;;25.95;25.42
78337;BME280;67610;51.588;7.002;2023-05-19T07:44:28;101811.31;;;26.23;23.30
78337;BME280;67610;51.588;7.002;2023-05-19T07:46:55;101811.16;;;26.36;24.73
78337;BME280;67610;51.588;7.002;2023-05-19T07:49:21;101806.03;;;26.46;24.69
78337;BME280;67610;51.588;7.002;2023-05-19T07:51:47;101807.03;;;26.81;24.72
78337;BME280;67610;51.588;7.002;2023-05-19T07:54:13;101805.94;;;27.12;24.50
78337;BME280;67610;51.588;7.002;2023-05-19T07:56:38;101810.31;;;27.36;23.96
78337;BME280;67610;51.588;7.002;2023-05-19T07:59:04;101814.59;;;27.44;23.55
78337;BME280;67610;51.588;7.002;2023-05-19T08:01:32;101808.59;;;27.65;23.38
78337;BME280;67610;51.588;7.002;2023-05-19T08:03:58;101809.06;;;27.85;22.73
78337;BME280;67610;51.588;7.002;2023-05-19T08:06:24;101802.00;;;27.96;23.36
78337;BME280;67610;51.588;7.002;2023-05-19T08:08:50;101807.50;;;27.89;21.40
78337;BME280;67610;51.588;7.002;2023-05-19T08:11:16;101798.63;;;27.65;22.39
78337;BME280;67610;51.588;7.002;2023-05-19T08:13:41;101798.94;;;27.69;22.60
78337;BME280;67610;51.588;7.002;2023-05-19T08:16:08;101805.66;;;27.78;22.34
78337;BME280;67610;51.588;7.002;2023-05-19T08:18:34;101812.13;;;28.00;22.14
78337;BME280;67610;51.588;7.002;2023-05-19T08:21:02;101794.81;;;28.01;22.00
78337;BME280;67610;51.588;7.002;2023-05-19T08:23:27;101793.31;;;28.05;21.75
78337;BME280;67610;51.588;7.002;2023-05-19T08:25:54;101796.94;;;28.11;22.85
78337;BME280;67610;51.588;7.002;2023-05-19T08:28:20;101792.03;;;28.36;22.19
78337;BME280;67610;51.588;7.002;2023-05-19T08:30:45;101787.25;;;28.55;21.91
78337;BME280;67610;51.588;7.002;2023-05-19T08:33:12;101786.84;;;28.74;21.98
78337;BME280;67610;51.588;7.002;2023-05-19T08:35:39;101783.22;;;28.69;21.25
78337;BME280;67610;51.588;7.002;2023-05-19T08:38:04;101783.97;;;28.81;21.82
78337;BME280;67610;51.588;7.002;2023-05-19T08:40:30;101776.09;;;28.96;19.79
78337;BME280;67610;51.588;7.002;2023-05-19T08:42:56;101779.19;;;28.71;21.19
78337;BME280;67610;51.588;7.002;2023-05-19T08:45:21;101772.34;;;28.97;21.05
78337;BME280;67610;51.588;7.002;2023-05-19T08:47:47;101773.84;;;29.21;20.23
78337;BME280;67610;51.588;7.002;2023-05-19T08:50:28;101770.75;;;28.84;19.67
78337;BME280;67610;51.588;7.002;2023-05-19T08:53:09;101763.53;;;28.90;20.80
78337;BME280;67610;51.588;7.002;2023-05-19T08:55:46;101765.97;;;28.75;20.63
78337;BME280;67610;51.588;7.002;2023-05-19T08:58:17;101775.72;;;29.04;20.67
78337;BME280;67610;51.588;7.002;2023-05-19T09:00:45;101763.59;;;29.23;20.52
78337;BME280;67610;51.588;7.002;2023-05-19T09:03:11;101758.56;;;29.32;19.37
78337;BME280;67610;51.588;7.002;2023-05-19T09:05:38;101756.53;;;29.60;19.28
78337;BME280;67610;51.588;7.002;2023-05-19T09:08:03;101751.31;;;29.37;19.24
78337;BME280;67610;51.588;7.002;2023-05-19T09:10:30;101749.28;;;29.28;18.51
78337;BME280;67610;51.588;7.002;2023-05-19T09:12:56;101740.72;;;28.86;19.75
78337;BME280;67610;51.588;7.002;2023-05-19T09:15:26;101753.75;;;28.89;19.53
78337;BME280;67610;51.588;7.002;2023-05-19T09:18:09;101752.31;;;28.81;19.19
78337;BME280;67610;51.588;7.002;2023-05-19T09:20:43;101756.56;;;28.49;17.58
78337;BME280;67610;51.588;7.002;2023-05-19T09:23:12;101753.88;;;28.09;19.65
78337;BME280;67610;51.588;7.002;2023-05-19T09:28:11;101748.97;;;28.34;18.00
78337;BME280;67610;51.588;7.002;2023-05-19T09:30:37;101758.25;;;28.38;19.16
78337;BME280;67610;51.588;7.002;2023-05-19T09:33:04;101742.53;;;28.24;20.16
78337;BME280;67610;51.588;7.002;2023-05-19T09:35:34;101746.06;;;28.24;20.22
78337;BME280;67610;51.588;7.002;2023-05-19T09:38:00;101740.31;;;28.49;20.12
78337;BME280;67610;51.588;7.002;2023-05-19T09:40:27;101730.63;;;28.98;19.84
78337;BME280;67610;51.588;7.002;2023-05-19T09:42:52;101737.63;;;29.27;18.99
78337;BME280;67610;51.588;7.002;2023-05-19T09:45:18;101727.84;;;29.26;19.09
78337;BME280;67610;51.588;7.002;2023-05-19T09:47:44;101734.63;;;29.12;19.38
78337;BME280;67610;51.588;7.002;2023-05-19T09:50:11;101739.69;;;28.30;19.13
78337;BME280;67610;51.588;7.002;2023-05-19T09:52:37;101733.16;;;28.15;19.35
78337;BME280;67610;51.588;7.002;2023-05-19T09:55:04;101723.94;;;28.27;20.17
78337;BME280;67610;51.588;7.002;2023-05-19T09:57:35;101714.41;;;28.53;19.46
78337;BME280;67610;51.588;7.002;2023-05-19T10:00:08;101709.09;;;28.58;18.70
78337;BME280;67610;51.588;7.002;2023-05-19T10:02:44;101709.03;;;28.70;18.42
78337;BME280;67610;51.588;7.002;2023-05-19T10:05:16;101710.03;;;28.52;19.14
78337;BME280;67610;51.588;7.002;2023-05-19T10:07:50;101705.25;;;28.43;18.90
78337;BME280;67610;51.588;7.002;2023-05-19T10:10:16;101714.28;;;28.60;19.73
78337;BME280;67610;51.588;7.002;2023-05-19T10:12:45;101717.16;;;29.03;18.89
78337;BME280;67610;51.588;7.002;2023-05-19T10:15:16;101703.69;;;29.08;18.49
78337;BME280;67610;51.588;7.002;2023-05-19T10:17:43;101695.50;;;29.20;18.90
78337;BME280;67610;51.588;7.002;2023-05-19T10:20:13;101693.63;;;29.42;18.89
78337;BME280;67610;51.588;7.002;2023-05-19T10:22:40;101708.31;;;29.24;18.62
78337;BME280;67610;51.588;7.002;2023-05-19T10:25:07;101717.00;;;29.26;18.18
78337;BME280;67610;51.588;7.002;2023-05-19T10:27:36;101699.00;;;29.37;18.64
78337;BME280;67610;51.588;7.002;2023-05-19T10:30:07;101699.94;;;29.09;18.13
78337;BME280;67610;51.588;7.002;2023-05-19T10:32:34;101705.66;;;28.96;18.86
78337;BME280;67610;51.588;7.002;2023-05-19T10:35:19;101700.31;;;29.01;18.22
78337;BME280;67610;51.588;7.002;2023-05-19T10:38:12;101700.16;;;28.91;18.42
78337;BME280;67610;51.588;7.002;2023-05-19T10:44:08;101687.28;;;28.65;18.73
78337;BME280;67610;51.588;7.002;2023-05-19T10:46:39;101683.59;;;28.71;18.79
78337;BME280;67610;51.588;7.002;2023-05-19T10:49:07;101692.13;;;28.63;19.46
78337;BME280;67610;51.588;7.002;2023-05-19T10:51:32;101682.59;;;28.60;18.79
78337;BME280;67610;51.588;7.002;2023-05-19T10:54:02;101690.81;;;28.82;18.90
78337;BME280;67610;51.588;7.002;2023-05-19T10:56:33;101690.97;;;28.92;18.92
78337;BME280;67610;51.588;7.002;2023-05-19T10:59:01;101684.06;;;29.01;19.54
78337;BME280;67610;51.588;7.002;2023-05-19T11:01:32;101676.19;;;29.16;18.40
78337;BME280;67610;51.588;7.002;2023-05-19T11:04:06;101682.69;;;28.82;17.99
78337;BME280;67610;51.588;7.002;2023-05-19T11:06:34;101685.34;;;28.49;18.34
78337;BME280;67610;51.588;7.002;2023-05-19T11:12:01;101666.94;;;27.66;19.79
78337;BME280;67610;51.588;7.002;2023-05-19T11:14:28;101685.69;;;27.44;19.61
78337;BME280;67610;51.588;7.002;2023-05-19T11:16:57;101672.41;;;27.08;20.26
78337;BME280;67610;51.588;7.002;2023-05-19T11:21:53;101672.28;;;26.39;20.16
78337;BME280;67610;51.588;7.002;2023-05-19T11:27:25;101655.41;;;25.95;20.83
78337;BME280;67610;51.588;7.002;2023-05-19T11:29:52;101663.69;;;25.82;21.10
78337;BME280;67610;51.588;7.002;2023-05-19T11:32:20;101666.75;;;25.67;20.97
78337;BME280;67610;51.588;7.002;2023-05-19T11:34:48;101665.69;;;25.32;21.43
78337;BME280;67610;51.588;7.002;2023-05-19T11:37:15;101654.00;;;25.20;21.09
78337;BME280;67610;51.588;7.002;2023-05-19T11:39:40;101650.03;;;24.80;21.48
78337;BME280;67610;51.588;7.002;2023-05-19T11:42:09;101649.53;;;24.65;22.29
78337;BME280;67610;51.588;7.002;2023-05-19T11:44:37;101647.25;;;24.62;22.33
78337;BME280;67610;51.588;7.002;2023-05-19T11:47:03;101646.25;;;24.56;22.65
78337;BME280;67610;51.588;7.002;2023-05-19T11:49:29;101640.50;;;24.53;22.66
78337;BME280;67610;51.588;7.002;2023-05-19T11:51:56;101635.59;;;24.43;22.73
78337;BME280;67610;51.588;7.002;2023-05-19T11:54:28;101639.31;;;24.49;23.33
78337;BME280;67610;51.588;7.002;2023-05-19T11:56:53;101646.91;;;24.52;22.64
78337;BME280;67610;51.588;7.002;2023-05-19T11:59:28;101647.50;;;24.60;22.42
78337;BME280;67610;51.588;7.002;2023-05-19T12:01:54;101617.53;;;24.81;22.85
78337;BME280;67610;51.588;7.002;2023-05-19T12:04:20;101648.84;;;24.76;22.59
78337;BME280;67610;51.588;7.002;2023-05-19T12:06:47;101635.47;;;24.63;22.49
78337;BME280;67610;51.588;7.002;2023-05-19T12:09:13;101633.34;;;24.40;22.63
78337;BME280;67610;51.588;7.002;2023-05-19T12:11:40;101639.19;;;23.93;23.20
78337;BME280;67610;51.588;7.002;2023-05-19T12:14:05;101620.81;;;23.90;23.18
78337;BME280;67610;51.588;7.002;2023-05-19T12:16:35;101625.00;;;23.79;23.29
78337;BME280;67610;51.588;7.002;2023-05-19T12:19:04;101637.44;;;23.67;24.27
78337;BME280;67610;51.588;7.002;2023-05-19T12:21:31;101621.75;;;23.64;23.17
78337;BME280;67610;51.588;7.002;2023-05-19T12:23:58;101609.31;;;23.76;23.81
78337;BME280;67610;51.588;7.002;2023-05-19T12:26:24;101619.75;;;23.97;23.73
78337;BME280;67610;51.588;7.002;2023-05-19T12:28:50;101616.00;;;23.98;23.72
78337;BME280;67610;51.588;7.002;2023-05-19T12:31:17;101608.94;;;24.04;23.91
78337;BME280;67610;51.588;7.002;2023-05-19T12:33:44;101613.19;;;23.80;24.26
78337;BME280;67610;51.588;7.002;2023-05-19T12:36:12;101620.72;;;23.65;24.70
78337;BME280;67610;51.588;7.002;2023-05-19T12:38:38;101609.59;;;23.55;24.12
78337;BME280;67610;51.588;7.002;2023-05-19T12:41:04;101611.28;;;23.49;24.76
78337;BME280;67610;51.588;7.002;2023-05-19T12:43:30;101603.41;;;23.54;24.76
78337;BME280;67610;51.588;7.002;2023-05-19T12:45:57;101611.13;;;23.38;24.52
78337;BME280;67610;51.588;7.002;2023-05-19T12:48:23;101600.41;;;23.18;25.15
78337;BME280;67610;51.588;7.002;2023-05-19T12:50:50;101605.53;;;23.33;25.20
78337;BME280;67610;51.588;7.002;2023-05-19T12:53:17;101579.63;;;23.58;24.80
78337;BME280;67610;51.588;7.002;2023-05-19T12:55:43;101590.44;;;23.45;24.25
78337;BME280;67610;51.588;7.002;2023-05-19T12:58:14;101597.88;;;23.43;24.08
78337;BME280;67610;51.588;7.002;2023-05-19T13:00:41;101592.13;;;23.26;23.88
78337;BME280;67610;51.588;7.002;2023-05-19T13:03:14;101593.38;;;23.11;24.81
78337;BME280;67610;51.588;7.002;2023-05-19T13:05:41;101589.44;;;23.20;24.42
78337;BME280;67610;51.588;7.002;2023-05-19T13:08:11;101586.53;;;23.28;24.69
78337;BME280;67610;51.588;7.002;2023-05-19T13:10:39;101579.50;;;23.27;24.84
78337;BME280;67610;51.588;7.002;2023-05-19T13:13:06;101583.88;;;23.21;23.86